Time;durP1;ratioP1;P1;durP2;ratioP2;P2;SDS_P1;SDS_P2;PMS_P1;PMS_P2;Temp;Humidity;BMP_temperature;BMP_pressure;BME280_temperature;BME280_humidity;BME280_pressure;Samples;Min_cycle;Max_cycle;Signal;HPM_P1;HPM_P2
2021/08/01 00:00:53;;;;;;;11.48;7.07;;;;;;;24.95;52.70;94629.88;4972323;28;20528;-71
2021/08/01 00:03:18;;;;;;;8.60;7.85;;;;;;;24.38;53.19;94626.66;4974073;28;20023;-71
2021/08/01 00:05:44;;;;;;;9.88;8.55;;;;;;;24.36;53.51;94615.41;4971823;28;20042;-71
2021/08/01 00:08:10;;;;;;;7.78;6.97;;;;;;;24.41;53.13;94625.06;4970510;28;20043;-70
2021/08/01 00:10:35;;;;;;;8.05;7.25;;;;;;;24.33;53.06;94618.13;4970945;28;20113;-71
2021/08/01 00:13:01;;;;;;;7.93;6.22;;;;;;;24.54;52.96;94622.59;4971658;28;20031;-71
2021/08/01 00:15:27;;;;;;;8.10;6.70;;;;;;;24.55;53.69;94619.47;4973474;28;20019;-72
2021/08/01 00:17:52;;;;;;;14.88;6.45;;;;;;;24.56;53.47;94622.94;4971145;28;20073;-71
2021/08/01 00:20:18;;;;;;;8.55;7.75;;;;;;;24.52;53.97;94619.53;4971464;28;20038;-71
2021/08/01 00:22:43;;;;;;;7.13;6.43;;;;;;;23.92;54.73;94618.16;4971423;28;20045;-70
2021/08/01 00:25:09;;;;;;;8.73;6.88;;;;;;;24.25;54.54;94636.44;4971682;28;20102;-71
2021/08/01 00:27:35;;;;;;;15.60;9.02;;;;;;;23.68;54.49;94636.19;4964622;28;20381;-71
2021/08/01 00:30:05;;;;;;;13.23;9.98;;;;;;;24.08;55.50;94634.69;4971040;28;20050;-71
2021/08/01 00:32:31;;;;;;;40.38;11.60;;;;;;;23.89;55.17;94637.97;4971155;28;20059;-70
2021/08/01 00:34:57;;;;;;;19.17;10.95;;;;;;;23.66;55.73;94628.47;4971337;28;20120;-71
2021/08/01 00:37:23;;;;;;;28.13;15.60;;;;;;;23.98;57.67;94635.56;4970834;28;20030;-69
2021/08/01 00:39:49;;;;;;;32.20;16.13;;;;;;;23.92;58.18;94634.44;4972875;28;20026;-69
2021/08/01 00:42:16;;;;;;;52.42;19.10;;;;;;;24.10;59.02;94638.53;4968325;28;20134;-68
2021/08/01 00:44:41;;;;;;;37.28;15.75;;;;;;;23.26;58.49;94625.22;4970189;28;20170;-68
2021/08/01 00:47:06;;;;;;;33.47;17.52;;;;;;;22.87;59.12;94619.19;4970471;28;20037;-69
2021/08/01 00:49:32;;;;;;;23.92;18.15;;;;;;;22.21;60.83;94627.97;4969497;28;20062;-68
2021/08/01 00:51:57;;;;;;;37.58;21.05;;;;;;;22.64;61.08;94615.06;4969780;28;20034;-69
2021/08/01 00:54:23;;;;;;;32.28;15.57;;;;;;;22.22;61.72;94626.81;4972962;28;20018;-69
2021/08/01 00:56:49;;;;;;;28.20;16.42;;;;;;;22.29;61.36;94632.97;4963482;28;20603;-69
2021/08/01 00:59:14;;;;;;;59.45;19.60;;;;;;;21.82;62.38;94633.41;4970389;28;20138;-68
2021/08/01 01:01:49;;;;;;;50.17;17.48;;;;;;;21.99;61.95;94638.03;4969358;28;20664;-69
2021/08/01 01:04:16;;;;;;;53.08;24.23;;;;;;;21.63;63.11;94640.00;4970855;28;20049;-68
2021/08/01 01:07:08;;;;;;;76.82;26.85;;;;;;;21.68;63.50;94636.91;4972184;28;20040;-68
2021/08/01 01:09:50;;;;;;;62.05;23.65;;;;;;;21.31;63.98;94627.22;4985795;28;20436;-70
2021/08/01 01:12:18;;;;;;;;;;;;;;;21.77;64.19;94648.88;4964839;28;20050;-70
2021/08/01 01:14:50;;;;;;;50.92;20.23;;;;;;;20.92;64.93;94624.41;4970624;28;19925;-73
2021/08/01 01:17:21;;;;;;;37.30;19.42;;;;;;;20.14;68.70;94643.72;4969996;28;20401;-71
2021/08/01 01:19:59;;;;;;;127.35;29.35;;;;;;;20.59;65.78;94641.66;4970454;28;20039;-72
2021/08/01 01:22:46;;;;;;;26.45;21.02;;;;;;;19.70;68.13;94629.16;4970508;28;20045;-71
2021/08/01 01:25:36;;;;;;;43.63;24.30;;;;;;;19.78;68.76;94605.69;4970493;28;20047;-71
2021/08/01 01:28:14;;;;;;;45.05;25.70;;;;;;;19.55;68.10;94578.94;4965769;28;20481;-71
2021/08/01 01:30:48;;;;;;;48.97;25.35;;;;;;;19.73;68.96;94570.97;4972131;28;20050;-69
2021/08/01 01:33:18;;;;;;;57.78;23.42;;;;;;;19.62;68.60;94545.84;4970450;28;20046;-70
2021/08/01 01:35:51;;;;;;;58.47;31.60;;;;;;;20.07;66.43;94471.66;4970021;28;20031;-70
2021/08/01 01:38:17;;;;;;;53.83;30.38;;;;;;;20.48;65.87;94483.00;4968881;28;20039;-73
2021/08/01 01:40:43;;;;;;;44.17;25.17;;;;;;;19.74;66.34;94478.06;4968157;28;20030;-69
2021/08/01 01:43:09;;;;;;;30.40;22.35;;;;;;;19.19;68.07;94465.41;4966713;28;20033;-69
2021/08/01 01:45:35;;;;;;;36.55;24.17;;;;;;;18.98;68.03;94511.03;4971631;28;20023;-70
2021/08/01 01:48:01;;;;;;;25.58;18.15;;;;;;;18.59;69.40;94516.06;4969652;28;20060;-69
2021/08/01 01:50:26;;;;;;;27.92;19.88;;;;;;;18.91;67.65;94495.59;4969839;28;20121;-68
2021/08/01 01:52:54;;;;;;;28.45;20.90;;;;;;;19.26;65.88;94488.94;4969956;28;20078;-69
2021/08/01 01:55:21;;;;;;;36.58;23.73;;;;;;;19.74;65.58;94508.53;4970096;28;20418;-69
2021/08/01 01:57:47;;;;;;;42.83;26.77;;;;;;;19.63;65.68;94477.25;4966410;28;20484;-68
2021/08/01 02:00:13;;;;;;;43.00;28.80;;;;;;;19.60;65.85;94470.66;4969380;28;20547;-69
2021/08/01 02:02:38;;;;;;;49.22;29.23;;;;;;;20.16;64.89;94463.97;4968349;28;20505;-71
2021/08/01 02:05:05;;;;;;;39.05;25.45;;;;;;;19.76;63.80;94448.81;4969871;28;20045;-69
2021/08/01 02:07:31;;;;;;;40.63;26.33;;;;;;;20.03;64.72;94465.47;4969176;28;20039;-68
2021/08/01 02:10:03;;;;;;;43.15;25.10;;;;;;;20.17;64.14;94462.06;4969738;28;20031;-69
2021/08/01 02:12:32;;;;;;;;;;;;;;;20.30;63.91;94474.03;4967564;28;20506;-69
2021/08/01 02:15:03;;;;;;;37.30;24.17;;;;;;;19.57;64.82;94481.44;4968277;28;19914;-69
2021/08/01 02:17:38;;;;;;;46.63;29.73;;;;;;;19.65;64.24;94421.75;4969030;28;20035;-68
2021/08/01 02:20:07;;;;;;;39.20;26.10;;;;;;;19.57;64.70;94438.25;4969797;28;20042;-68
2021/08/01 02:22:32;;;;;;;34.67;26.08;;;;;;;20.13;63.84;94461.28;4969730;28;20033;-68
2021/08/01 02:25:00;;;;;;;27.30;21.35;;;;;;;20.19;63.43;94489.44;4969884;28;20034;-68
2021/08/01 02:27:29;;;;;;;40.42;27.50;;;;;;;20.41;61.43;94512.66;4967340;28;20188;-67
2021/08/01 02:29:56;;;;;;;33.13;23.33;;;;;;;19.86;64.04;94529.03;4969657;28;20151;-69
2021/08/01 02:32:22;;;;;;;47.13;29.92;;;;;;;20.23;63.34;94520.72;4969890;28;20678;-68
2021/08/01 02:34:48;;;;;;;35.47;25.20;;;;;;;19.86;64.59;94530.94;4969968;28;20039;-68
2021/08/01 02:37:15;;;;;;;42.25;26.58;;;;;;;20.10;63.27;94551.13;4968771;28;20093;-69
2021/08/01 02:39:42;;;;;;;34.00;25.35;;;;;;;19.84;64.56;94498.16;4970786;28;20109;-68
2021/08/01 02:42:10;;;;;;;47.75;30.13;;;;;;;19.51;65.48;94515.31;4966377;28;20046;-68
2021/08/01 02:44:37;;;;;;;50.42;32.55;;;;;;;19.83;64.04;94480.44;4969555;28;20062;-68
2021/08/01 02:47:06;;;;;;;48.63;32.20;;;;;;;19.54;65.02;94496.44;4969018;28;20049;-68
2021/08/01 02:49:36;;;;;;;46.08;30.15;;;;;;;19.27;65.78;94476.22;4969490;28;20035;-68
2021/08/01 02:52:03;;;;;;;54.03;32.42;;;;;;;19.48;65.34;94462.88;4968508;28;20031;-68
2021/08/01 02:54:30;;;;;;;39.95;27.23;;;;;;;18.62;66.83;94456.06;4971563;28;20023;-68
2021/08/01 02:56:59;;;;;;;54.40;31.67;;;;;;;18.90;66.66;94436.69;4971369;28;20050;-69
2021/08/01 02:59:26;;;;;;;39.85;25.98;;;;;;;18.50;67.10;94457.09;4988684;28;20031;-68
2021/08/01 03:01:56;;;;;;;44.75;28.88;;;;;;;18.76;67.93;94461.59;4989099;28;20374;-68
2021/08/01 03:04:26;;;;;;;37.75;27.42;;;;;;;18.30;68.27;94461.13;4988658;28;20077;-68
2021/08/01 03:06:53;;;;;;;61.33;33.90;;;;;;;18.94;66.49;94462.53;4971162;28;20077;-69
2021/08/01 03:09:18;;;;;;;42.42;27.98;;;;;;;18.74;67.65;94474.69;4993167;28;20026;-67
2021/08/01 03:11:44;;;;;;;33.25;26.92;;;;;;;18.75;66.67;94460.06;4983586;28;20046;-67
2021/08/01 03:14:11;;;;;;;50.95;33.83;;;;;;;19.48;65.27;94462.88;4972611;28;20035;-67
2021/08/01 03:16:37;;;;;;;47.03;29.92;;;;;;;18.96;65.38;94478.31;4972207;28;20047;-67
2021/08/01 03:19:02;;;;;;;48.65;29.05;;;;;;;19.11;65.86;94477.28;4972501;28;20029;-68
2021/08/01 03:21:28;;;;;;;42.90;29.63;;;;;;;19.74;63.21;94495.03;4973389;28;20045;-67
2021/08/01 03:23:53;;;;;;;38.72;23.55;;;;;;;17.80;69.34;94573.56;4972824;28;20034;-67
2021/08/01 03:26:18;;;;;;;42.78;29.38;;;;;;;18.67;67.66;94618.13;4970704;28;20078;-68
2021/08/01 03:28:44;;;;;;;43.67;24.35;;;;;;;18.76;67.08;94657.50;4971009;28;20485;-68
2021/08/01 03:31:09;;;;;;;181.70;30.30;;;;;;;19.22;66.88;94602.16;4972593;28;20413;-68
2021/08/01 03:33:34;;;;;;;205.10;24.30;;;;;;;19.29;66.70;94515.13;4974582;28;20081;-68
2021/08/01 03:36:00;;;;;;;25.40;10.30;;;;;;;18.05;70.37;94592.72;4972178;28;20488;-69
2021/08/01 03:38:25;;;;;;;28.75;16.98;;;;;;;18.28;69.41;94600.72;4972411;28;20118;-69
2021/08/01 03:40:51;;;;;;;31.17;20.83;;;;;;;18.60;68.38;94598.41;4972348;28;20157;-69
2021/08/01 03:43:16;;;;;;;26.52;20.10;;;;;;;18.52;68.88;94616.41;4970792;28;20089;-71
2021/08/01 03:45:42;;;;;;;24.95;17.50;;;;;;;19.05;67.08;94591.22;4973774;28;20037;-69
2021/08/01 03:48:07;;;;;;;33.92;21.92;;;;;;;19.06;67.20;94592.75;4972216;28;20035;-69
2021/08/01 03:50:33;;;;;;;26.45;19.13;;;;;;;19.62;65.10;94586.31;4972204;28;20035;-69
2021/08/01 03:52:58;;;;;;;13.02;11.60;;;;;;;19.06;66.31;94592.75;4972167;28;20031;-69
2021/08/01 03:55:23;;;;;;;14.27;11.65;;;;;;;19.65;64.81;94591.72;4972343;28;20047;-69
2021/08/01 03:57:49;;;;;;;12.25;11.07;;;;;;;19.42;65.24;94588.44;4965190;28;20033;-70
2021/08/01 04:00:14;;;;;;;10.48;9.20;;;;;;;18.83;67.15;94593.69;4988864;28;20129;-69
2021/08/01 04:02:39;;;;;;;8.98;7.40;;;;;;;18.55;68.14;94587.97;4991443;28;20045;-69
2021/08/01 04:05:06;;;;;;;12.30;10.52;;;;;;;18.60;68.83;94601.88;4991565;28;20037;-71
2021/08/01 04:07:31;;;;;;;10.50;9.07;;;;;;;18.98;67.07;94612.69;4991092;28;20030;-70
2021/08/01 04:09:57;;;;;;;12.65;10.15;;;;;;;18.94;67.48;94618.06;4991891;28;20034;-68
2021/08/01 04:12:22;;;;;;;13.25;10.75;;;;;;;18.79;67.77;94638.69;4975695;28;20067;-69
2021/08/01 04:14:48;;;;;;;9.25;8.30;;;;;;;18.37;68.21;94677.38;4983688;28;20125;-68
2021/08/01 04:17:18;;;;;;;8.95;7.30;;;;;;;18.27;69.28;94679.94;4990819;28;20122;-69
2021/08/01 04:19:43;;;;;;;15.50;11.60;;;;;;;18.53;68.63;94668.34;4990225;28;20042;-69
2021/08/01 04:22:09;;;;;;;23.17;14.82;;;;;;;18.48;69.09;94661.38;4990262;28;20031;-69
2021/08/01 04:24:34;;;;;;;21.73;15.40;;;;;;;18.61;68.43;94670.00;4993128;28;20487;-69
2021/08/01 04:26:59;;;;;;;17.42;14.68;;;;;;;18.64;67.91;94658.50;4977174;28;20472;-70
2021/08/01 04:29:25;;;;;;;24.35;18.20;;;;;;;18.68;67.90;94660.13;4970669;28;20030;-69
2021/08/01 04:31:50;;;;;;;20.15;16.05;;;;;;;18.45;68.31;94673.66;4971624;28;20035;-69
2021/08/01 04:34:16;;;;;;;21.08;17.48;;;;;;;18.45;69.15;94673.66;4971858;28;20641;-70
2021/08/01 04:36:42;;;;;;;24.98;18.83;;;;;;;18.60;68.73;94674.59;4973144;28;20389;-69
2021/08/01 04:39:07;;;;;;;23.85;17.38;;;;;;;18.25;69.75;94664.16;4971498;28;20042;-70
2021/08/01 04:41:33;;;;;;;24.13;17.50;;;;;;;18.32;69.37;94675.00;4968290;28;20122;-69
2021/08/01 04:43:59;;;;;;;33.25;21.25;;;;;;;18.82;67.97;94670.28;4965465;28;20505;-69
2021/08/01 04:46:25;;;;;;;17.10;14.93;;;;;;;18.75;68.08;94670.19;4970665;28;20031;-69
2021/08/01 04:48:50;;;;;;;19.92;16.98;;;;;;;19.05;66.82;94650.50;4972067;28;20026;-69
2021/08/01 04:51:16;;;;;;;19.00;13.50;;;;;;;19.08;66.49;94658.63;4986796;28;20098;-70
2021/08/01 04:53:41;;;;;;;16.45;14.15;;;;;;;19.03;66.83;94668.97;4969982;28;20039;-69
2021/08/01 04:56:10;;;;;;;12.68;9.93;;;;;;;18.69;67.86;94671.66;4970996;28;20054;-69
2021/08/01 04:58:36;;;;;;;11.38;10.32;;;;;;;18.48;67.80;94680.25;4964532;28;20504;-69
2021/08/01 05:01:08;;;;;;;18.80;14.48;;;;;;;19.46;65.57;94673.63;4969855;28;20061;-69
2021/08/01 05:03:33;;;;;;;15.30;13.25;;;;;;;18.64;67.94;94664.66;4973077;28;20031;-69
2021/08/01 05:05:59;;;;;;;10.75;9.68;;;;;;;18.38;68.22;94673.56;4970645;28;20031;-69
2021/08/01 05:08:24;;;;;;;8.23;7.53;;;;;;;18.30;68.23;94689.97;4970728;28;20090;-69
2021/08/01 05:10:49;;;;;;;9.43;8.63;;;;;;;18.22;68.38;94693.69;4969168;28;20030;-69
2021/08/01 05:13:15;;;;;;;10.07;9.18;;;;;;;18.67;67.91;94700.84;4964572;28;20110;-69
2021/08/01 05:15:40;;;;;;;11.45;10.45;;;;;;;18.76;67.02;94708.69;4971993;28;20026;-69
2021/08/01 05:18:06;;;;;;;11.90;10.30;;;;;;;18.36;68.70;94713.53;4969357;28;20082;-69
2021/08/01 05:20:31;;;;;;;12.07;10.88;;;;;;;18.41;67.89;94709.75;4970611;28;20039;-69
2021/08/01 05:22:56;;;;;;;11.52;9.98;;;;;;;18.78;67.24;94717.19;4970596;28;20170;-69
2021/08/01 05:25:22;;;;;;;10.18;9.13;;;;;;;18.18;69.40;94729.44;4970478;28;20050;-69
2021/08/01 05:27:47;;;;;;;11.88;9.98;;;;;;;18.60;67.11;94728.47;4966534;28;20030;-69
2021/08/01 05:30:13;;;;;;;11.88;10.68;;;;;;;18.44;68.23;94744.81;4970178;28;20063;-69
2021/08/01 05:32:38;;;;;;;14.82;12.25;;;;;;;18.40;68.21;94748.59;4970327;28;20035;-69
2021/08/01 05:35:04;;;;;;;12.95;11.63;;;;;;;18.75;67.69;94739.47;4969136;28;20420;-69
2021/08/01 05:37:30;;;;;;;11.38;8.88;;;;;;;18.67;67.24;94763.59;4970067;28;20060;-70
2021/08/01 05:39:57;;;;;;;10.75;9.65;;;;;;;18.67;67.42;94763.59;4970168;28;20535;-69
2021/08/01 05:42:22;;;;;;;11.38;9.18;;;;;;;18.44;67.53;94765.59;4967141;28;20491;-69
2021/08/01 05:44:47;;;;;;;9.90;8.45;;;;;;;18.13;68.41;94758.56;4969998;28;20070;-69
2021/08/01 05:47:13;;;;;;;11.07;9.75;;;;;;;18.19;68.93;94757.13;4969573;28;20409;-68
2021/08/01 05:49:38;;;;;;;12.57;11.38;;;;;;;19.01;66.31;94763.66;4970094;28;20074;-69
2021/08/01 05:52:03;;;;;;;11.73;10.70;;;;;;;18.86;66.41;94765.41;4968590;28;20190;-69
2021/08/01 05:54:29;;;;;;;11.50;10.30;;;;;;;19.11;66.23;94763.03;4971849;28;20030;-69
2021/08/01 05:56:54;;;;;;;13.80;12.40;;;;;;;19.02;65.71;94762.53;4965878;28;20477;-69
2021/08/01 05:59:19;;;;;;;15.80;12.32;;;;;;;19.47;65.28;94760.72;4967811;28;20481;-69
2021/08/01 06:01:45;;;;;;;16.50;13.00;;;;;;;19.34;65.44;94762.13;4968672;28;20479;-68
2021/08/01 06:04:10;;;;;;;13.82;12.48;;;;;;;19.17;66.10;94766.94;4969693;28;20054;-69
2021/08/01 06:06:35;;;;;;;13.27;11.85;;;;;;;19.04;66.03;94770.25;4971230;28;20027;-70
2021/08/01 06:09:02;;;;;;;12.70;11.40;;;;;;;18.95;66.74;94774.00;4969874;28;20038;-68
2021/08/01 06:11:28;;;;;;;14.15;11.43;;;;;;;18.94;67.40;94787.84;4970012;28;20063;-68
2021/08/01 06:13:53;;;;;;;11.95;10.75;;;;;;;19.85;64.45;94796.59;4965890;28;20047;-68
2021/08/01 06:16:19;;;;;;;9.63;8.68;;;;;;;19.07;65.77;94786.47;4969073;28;20042;-68
2021/08/01 06:18:44;;;;;;;9.13;8.32;;;;;;;19.00;65.63;94799.09;4970371;28;20030;-68
2021/08/01 06:21:16;;;;;;;11.02;9.85;;;;;;;19.48;64.83;94797.34;4969666;28;20054;-68
2021/08/01 06:23:46;;;;;;;8.30;7.57;;;;;;;19.56;64.56;94793.59;4969870;28;20039;-68
2021/08/01 06:26:12;;;;;;;9.02;8.32;;;;;;;19.40;63.80;94783.00;4969261;28;20041;-69
2021/08/01 06:28:38;;;;;;;16.30;10.32;;;;;;;20.08;63.39;94801.81;4966298;28;20035;-68
2021/08/01 06:31:05;;;;;;;10.65;9.65;;;;;;;19.81;63.44;94799.28;4969547;28;20089;-69
2021/08/01 06:33:31;;;;;;;11.10;10.07;;;;;;;20.75;62.09;94788.84;4971703;28;20023;-69
2021/08/01 06:35:56;;;;;;;13.10;11.77;;;;;;;21.21;60.14;94799.13;4969338;28;20035;-69
2021/08/01 06:38:23;;;;;;;10.48;9.30;;;;;;;20.64;60.80;94801.50;4969581;28;20039;-69
2021/08/01 06:40:48;;;;;;;7.93;7.32;;;;;;;20.32;61.47;94795.84;4969571;28;20047;-70
2021/08/01 06:43:14;;;;;;;10.10;9.20;;;;;;;20.99;60.03;94800.94;4968249;28;20698;-70
2021/08/01 06:45:39;;;;;;;10.98;8.55;;;;;;;20.91;60.87;94804.75;4974696;28;20428;-70
2021/08/01 06:48:06;;;;;;;7.28;6.57;;;;;;;21.98;59.44;94798.97;4973030;28;20050;-70
2021/08/01 06:50:32;;;;;;;8.45;7.72;;;;;;;22.66;58.59;94802.47;4972980;28;20035;-70
2021/08/01 06:52:57;;;;;;;10.15;7.63;;;;;;;21.53;59.34;94814.72;4973286;28;20085;-70
2021/08/01 06:55:22;;;;;;;11.25;10.18;;;;;;;22.45;57.64;94803.28;4973368;28;20043;-70
2021/08/01 06:57:48;;;;;;;6.82;6.22;;;;;;;21.69;58.99;94806.25;4972385;28;20108;-71
2021/08/01 07:00:14;;;;;;;6.63;6.03;;;;;;;21.90;57.85;94813.66;4972885;28;20038;-71
2021/08/01 07:02:39;;;;;;;5.78;5.25;;;;;;;21.95;58.58;94788.91;4973378;28;20042;-71
2021/08/01 07:05:05;;;;;;;5.10;4.70;;;;;;;22.61;57.13;94796.69;4972974;28;20050;-70
2021/08/01 07:07:30;;;;;;;4.63;4.32;;;;;;;22.90;56.35;94808.28;4972769;28;20049;-72
2021/08/01 07:09:55;;;;;;;3.13;2.80;;;;;;;22.11;57.46;94823.78;4974063;28;20495;-70
2021/08/01 07:12:21;;;;;;;2.47;2.28;;;;;;;21.47;57.43;94829.78;4973777;28;20051;-70
2021/08/01 07:14:47;;;;;;;2.42;2.22;;;;;;;21.70;57.43;94819.44;4974082;28;20051;-72
2021/08/01 07:17:12;;;;;;;2.28;2.17;;;;;;;22.27;56.10;94814.13;4972737;28;20046;-74
2021/08/01 07:19:38;;;;;;;2.90;1.92;;;;;;;21.15;58.44;94818.81;4973230;28;20031;-75
2021/08/01 07:22:04;;;;;;;2.95;2.20;;;;;;;20.28;60.04;94813.97;4973319;28;20027;-75
2021/08/01 07:24:30;;;;;;;2.08;1.90;;;;;;;21.26;58.32;94806.88;4975538;28;20031;-75
2021/08/01 07:26:55;;;;;;;2.80;2.15;;;;;;;22.96;56.87;94812.16;4973476;28;20122;-77
2021/08/01 07:29:27;;;;;;;3.00;2.05;;;;;;;22.00;55.73;94824.50;4972373;28;20035;-74
2021/08/01 07:31:52;;;;;;;2.20;2.10;;;;;;;23.08;55.25;94817.94;4973212;28;20043;-75
2021/08/01 07:34:18;;;;;;;2.72;2.25;;;;;;;22.43;55.24;94807.56;4972891;28;20043;-69
2021/08/01 07:36:46;;;;;;;2.08;1.95;;;;;;;23.01;55.77;94806.31;4973845;28;20027;-68
2021/08/01 07:39:11;;;;;;;2.30;2.05;;;;;;;22.20;56.82;94810.63;4972452;28;20528;-69
2021/08/01 07:41:37;;;;;;;3.45;1.85;;;;;;;21.73;57.21;94817.88;4972748;28;20141;-75
2021/08/01 07:44:02;;;;;;;2.60;1.75;;;;;;;21.44;56.84;94830.53;4963917;28;20081;-69
2021/08/01 07:46:27;;;;;;;2.00;1.90;;;;;;;21.39;56.96;94830.91;4971793;28;20077;-69
2021/08/01 07:48:53;;;;;;;2.20;2.00;;;;;;;23.01;56.20;94815.22;4973181;28;20050;-76
2021/08/01 07:51:18;;;;;;;1.92;1.73;;;;;;;22.01;54.71;94831.50;4974655;28;20403;-68
2021/08/01 07:53:43;;;;;;;1.98;1.77;;;;;;;21.52;55.65;94832.88;4971921;28;20413;-67
2021/08/01 07:56:09;;;;;;;2.03;1.90;;;;;;;21.85;56.92;94832.97;4971375;28;20122;-67
2021/08/01 07:58:34;;;;;;;3.25;2.28;;;;;;;22.58;56.65;94831.53;4963983;28;20173;-67
2021/08/01 08:00:59;;;;;;;3.38;2.00;;;;;;;23.56;55.30;94827.47;4971597;28;20023;-65
2021/08/01 08:03:25;;;;;;;3.38;2.22;;;;;;;24.39;55.55;94836.72;4973947;28;20082;-71
2021/08/01 08:05:51;;;;;;;7.10;2.08;;;;;;;22.66;53.32;94835.00;4971389;28;20404;-68
2021/08/01 08:08:17;;;;;;;3.00;2.20;;;;;;;24.12;55.47;94815.53;4971837;28;20050;-71
2021/08/01 08:10:42;;;;;;;1.73;1.50;;;;;;;23.92;52.55;94806.34;4971835;28;20034;-67
2021/08/01 08:13:07;;;;;;;2.97;1.83;;;;;;;22.03;53.47;94807.50;4964516;28;20110;-69
2021/08/01 08:15:33;;;;;;;1.65;1.55;;;;;;;22.25;56.65;94818.38;4973302;28;20030;-70
2021/08/01 08:17:59;;;;;;;1.80;1.70;;;;;;;23.38;55.20;94821.31;4971659;28;20042;-70
2021/08/01 08:20:25;;;;;;;3.15;1.73;;;;;;;24.18;53.30;94817.84;4971734;28;20043;-68
2021/08/01 08:22:51;;;;;;;2.22;1.80;;;;;;;22.42;54.04;94828.47;4971885;28;20034;-71
2021/08/01 08:25:16;;;;;;;2.17;2.03;;;;;;;23.51;54.68;94820.50;4971715;28;20560;-72
2021/08/01 08:27:42;;;;;;;2.67;1.95;;;;;;;22.90;52.76;94821.84;4970400;28;20035;-72
2021/08/01 08:30:08;;;;;;;1.48;1.38;;;;;;;23.15;53.56;94825.28;4968282;28;20034;-72
2021/08/01 08:32:34;;;;;;;2.60;1.88;;;;;;;22.56;54.36;94812.16;4971893;28;20031;-71
2021/08/01 08:35:00;;;;;;;1.80;1.70;;;;;;;21.98;54.50;94820.63;4971723;28;20518;-69
2021/08/01 08:37:26;;;;;;;2.40;1.92;;;;;;;21.88;56.56;94822.16;4970789;28;20039;-71
2021/08/01 08:39:51;;;;;;;3.80;1.67;;;;;;;22.42;54.20;94823.03;4971678;28;20033;-69
2021/08/01 08:42:17;;;;;;;2.38;1.80;;;;;;;22.36;52.75;94816.44;4973444;28;20023;-70
2021/08/01 08:44:42;;;;;;;1.73;1.58;;;;;;;23.25;55.18;94832.63;4965067;28;20559;-69
2021/08/01 08:47:08;;;;;;;2.00;1.90;;;;;;;23.98;53.96;94840.06;4970660;28;20048;-71
2021/08/01 08:49:37;;;;;;;2.15;2.00;;;;;;;21.86;53.80;94835.31;4971150;28;20417;-70
2021/08/01 08:52:06;;;;;;;2.63;1.95;;;;;;;22.23;55.99;94842.38;4970919;28;20030;-71
2021/08/01 08:54:50;;;;;;;2.10;1.90;;;;;;;23.16;51.89;94843.09;4972963;28;20023;-66
2021/08/01 08:57:24;;;;;;;2.10;1.73;;;;;;;22.22;55.08;94833.47;4970942;28;20066;-70
2021/08/01 08:59:58;;;;;;;1.70;1.52;;;;;;;22.75;55.08;94835.41;4965912;28;20085;-70
2021/08/01 09:02:23;;;;;;;2.17;1.98;;;;;;;22.45;52.80;94833.09;4970708;28;20543;-70
2021/08/01 09:04:49;;;;;;;3.45;1.90;;;;;;;21.86;55.61;94824.50;4970968;28;20050;-69
2021/08/01 09:07:14;;;;;;;2.05;1.95;;;;;;;21.47;56.47;94838.66;4969890;28;20130;-69
2021/08/01 09:09:40;;;;;;;2.35;2.20;;;;;;;21.46;58.50;94844.47;4972612;28;20037;-70
2021/08/01 09:12:05;;;;;;;2.67;2.13;;;;;;;21.83;55.28;94832.59;4970655;28;20050;-70
2021/08/01 09:14:31;;;;;;;2.92;1.90;;;;;;;21.66;54.04;94848.41;4965249;28;20059;-72
2021/08/01 09:16:56;;;;;;;3.80;1.80;;;;;;;21.56;56.12;94832.91;4970141;28;20502;-73
2021/08/01 09:19:36;;;;;;;2.83;1.70;;;;;;;21.53;54.50;94831.72;4970730;28;20039;-74
2021/08/01 09:22:20;;;;;;;2.03;1.90;;;;;;;22.71;52.99;94842.75;4985996;28;20481;-70
2021/08/01 09:24:47;;;;;;;2.13;1.95;;;;;;;23.20;54.19;94838.44;4972594;28;20031;-74
2021/08/01 09:27:31;;;;;;;2.08;1.70;;;;;;;23.07;52.61;94835.38;4969685;28;20436;-73
2021/08/01 09:29:57;;;;;;;1.80;1.70;;;;;;;24.32;53.80;94844.91;4964307;28;20465;-73
2021/08/01 09:32:24;;;;;;;2.47;2.28;;;;;;;22.00;54.55;94845.38;4970599;28;20039;-74
2021/08/01 09:34:49;;;;;;;2.88;2.35;;;;;;;21.77;56.94;94838.38;4969187;28;20063;-72
2021/08/01 09:37:35;;;;;;;3.00;2.15;;;;;;;21.62;56.75;94849.56;4969930;28;20043;-68
2021/08/01 09:40:10;;;;;;;2.38;2.20;;;;;;;22.24;56.10;94833.84;4969992;28;20034;-67
2021/08/01 09:42:40;;;;;;;2.25;2.05;;;;;;;22.45;54.56;94843.94;4972198;28;20050;-76
2021/08/01 09:45:20;;;;;;;2.08;1.88;;;;;;;21.65;55.56;94832.53;4966513;28;20045;-73
2021/08/01 09:47:47;;;;;;;2.97;1.95;;;;;;;21.68;56.39;94834.50;4968376;28;20496;-74
2021/08/01 09:50:14;;;;;;;2.30;1.95;;;;;;;22.11;53.63;94840.81;4970279;28;20039;-72
2021/08/01 09:52:41;;;;;;;2.47;2.20;;;;;;;22.29;53.14;94840.81;4970425;28;20031;-73
2021/08/01 09:55:21;;;;;;;1.88;1.77;;;;;;;20.96;56.82;94838.78;4970542;28;20065;-76
2021/08/01 09:57:53;;;;;;;3.40;2.30;;;;;;;21.06;55.49;94831.88;4971226;28;20022;-67
2021/08/01 10:00:20;;;;;;;2.60;2.05;;;;;;;22.10;56.14;94833.03;4967850;28;20102;-67
2021/08/01 10:02:46;;;;;;;2.28;2.00;;;;;;;21.87;57.91;94812.50;4969489;28;20030;-67
2021/08/01 10:05:22;;;;;;;2.20;2.10;;;;;;;22.36;55.85;94821.09;4969713;28;20648;-67
2021/08/01 10:07:50;;;;;;;2.35;2.15;;;;;;;21.62;56.14;94828.69;4967958;28;20049;-67
2021/08/01 10:10:20;;;;;;;2.70;2.50;;;;;;;21.40;57.24;94830.53;4970108;28;20490;-77
2021/08/01 10:12:52;;;;;;;2.38;2.17;;;;;;;21.20;59.55;94821.91;4972895;28;20035;-77
2021/08/01 10:15:18;;;;;;;2.08;1.80;;;;;;;22.49;56.16;94808.69;4986956;28;20085;-77
2021/08/01 10:17:44;;;;;;;6.57;2.20;;;;;;;21.97;55.16;94822.56;4990351;28;20046;-77
2021/08/01 10:20:10;;;;;;;2.55;2.35;;;;;;;22.58;56.13;94825.34;4993954;28;20041;-76
2021/08/01 10:22:37;;;;;;;3.95;2.17;;;;;;;23.39;52.41;94825.56;4992218;28;20495;-78
2021/08/01 10:25:07;;;;;;;2.45;2.25;;;;;;;23.27;53.53;94822.13;4992721;28;20489;-75
2021/08/01 10:27:36;;;;;;;3.13;2.08;;;;;;;23.74;50.78;94839.03;4994987;28;20019;-78
2021/08/01 10:30:02;;;;;;;2.97;2.03;;;;;;;23.57;52.98;94829.00;4975230;28;20077;-76
2021/08/01 10:32:33;;;;;;;2.53;2.10;;;;;;;23.01;53.29;94838.88;4972476;28;20035;-75
2021/08/01 10:35:06;;;;;;;2.60;2.30;;;;;;;23.40;51.06;94827.91;4974193;28;20456;-74
2021/08/01 10:37:37;;;;;;;2.03;1.83;;;;;;;23.33;51.06;94841.50;4973483;28;20553;-74
2021/08/01 10:40:06;;;;;;;2.10;1.90;;;;;;;23.00;53.63;94826.47;4973595;28;20105;-73
2021/08/01 10:42:36;;;;;;;2.55;1.80;;;;;;;23.76;52.35;94828.56;4975383;28;20105;-74
2021/08/01 10:45:02;;;;;;;2.42;2.20;;;;;;;23.64;50.23;94818.13;4971954;28;20652;-80
2021/08/01 10:47:28;;;;;;;1.70;1.60;;;;;;;23.74;51.09;94822.72;4973938;28;20044;-77
2021/08/01 10:49:54;;;;;;;2.33;1.95;;;;;;;24.67;51.69;94819.41;4973648;28;20042;-76
2021/08/01 10:52:19;;;;;;;2.10;1.90;;;;;;;24.34;49.91;94812.66;4973770;28;20509;-72
2021/08/01 10:54:52;;;;;;;2.78;1.83;;;;;;;23.79;49.17;94841.31;4975532;28;20053;-71
2021/08/01 10:57:20;;;;;;;2.45;2.13;;;;;;;23.57;52.32;94827.06;4973131;28;20047;-74
2021/08/01 10:59:45;;;;;;;1.90;1.70;;;;;;;24.26;51.72;94833.69;4976718;28;20061;-75
2021/08/01 11:02:15;;;;;;;2.20;1.90;;;;;;;24.19;49.72;94841.88;4975727;28;20085;-73
2021/08/01 11:04:43;;;;;;;2.97;2.40;;;;;;;23.30;49.99;94845.78;4972793;28;20456;-71
2021/08/01 11:07:09;;;;;;;2.28;1.80;;;;;;;24.56;50.51;94835.03;4972247;28;20027;-72
2021/08/01 11:09:34;;;;;;;2.08;1.90;;;;;;;22.28;53.02;94829.22;4974871;28;20555;-71
2021/08/01 11:12:19;;;;;;;2.08;1.98;;;;;;;23.41;52.50;94844.97;4971715;28;20057;-72
2021/08/01 11:14:49;;;;;;;2.72;2.10;;;;;;;24.00;50.11;94850.53;4972017;28;20063;-73
2021/08/01 11:17:17;;;;;;;1.90;1.80;;;;;;;23.46;52.51;94845.34;4970794;28;20038;-72
2021/08/01 11:19:43;;;;;;;1.77;1.67;;;;;;;23.11;51.33;94848.94;4972472;28;20043;-71
2021/08/01 11:22:39;;;;;;;2.03;1.92;;;;;;;23.47;54.94;94843.41;4972610;28;20054;-72
2021/08/01 11:25:28;;;;;;;2.10;1.90;;;;;;;23.32;51.81;94846.16;4972629;28;20038;-72
2021/08/01 11:28:12;;;;;;;1.65;1.55;;;;;;;22.86;53.40;94842.75;4972360;28;20051;-72